createdAt,value
2017-07-27T00:00:21.163Z,82.70
2017-07-27T00:02:49.113Z,82.70
2017-07-27T00:05:16.670Z,82.60
2017-07-27T00:07:44.217Z,82.40
2017-07-27T00:10:11.799Z,82.60
2017-07-27T00:12:39.352Z,82.60
2017-07-27T00:15:07.253Z,82.50
2017-07-27T00:17:34.813Z,82.50
2017-07-27T00:20:02.516Z,82.60
2017-07-27T00:22:30.120Z,83.00
2017-07-27T00:24:57.679Z,82.70
2017-07-27T00:27:25.556Z,82.80
2017-07-27T00:29:53.111Z,82.80
2017-07-27T00:32:20.686Z,82.70
2017-07-27T00:34:49.046Z,82.70
2017-07-27T00:37:16.780Z,82.60
2017-07-27T00:39:44.647Z,82.70
2017-07-27T00:42:12.306Z,82.80
2017-07-27T00:44:39.866Z,82.70
2017-07-27T00:47:07.463Z,82.70
2017-07-27T00:49:35.035Z,83.10
2017-07-27T00:52:02.884Z,82.80
2017-07-27T00:54:30.437Z,82.90
2017-07-27T00:56:57.993Z,83.20
2017-07-27T00:59:25.942Z,82.70
2017-07-27T01:01:53.599Z,82.80
2017-07-27T01:04:21.496Z,82.70
2017-07-27T01:06:49.047Z,82.70
2017-07-27T01:09:16.606Z,82.60
2017-07-27T01:11:44.205Z,82.50
2017-07-27T01:14:11.768Z,82.70
2017-07-27T01:16:40.418Z,82.60
2017-07-27T01:19:07.968Z,82.50
2017-07-27T01:21:35.530Z,82.50
2017-07-27T01:24:03.169Z,82.70
2017-07-27T01:26:30.725Z,82.90
2017-07-27T01:28:58.635Z,82.70
2017-07-27T01:31:26.180Z,82.90
2017-07-27T01:33:53.725Z,82.90
2017-07-27T01:36:21.326Z,82.90
2017-07-27T01:38:48.879Z,82.90
2017-07-27T01:41:16.838Z,82.90
2017-07-27T01:43:44.545Z,82.70
2017-07-27T01:46:12.109Z,82.30
2017-07-27T01:48:39.712Z,82.50
2017-07-27T01:51:07.278Z,82.50
2017-07-27T01:53:35.150Z,82.60
2017-07-27T01:56:02.709Z,82.20
2017-07-27T01:58:30.253Z,82.30
2017-07-27T02:00:57.850Z,82.20
2017-07-27T02:03:25.444Z,82.20
2017-07-27T02:05:53.452Z,82.50
2017-07-27T02:08:21.015Z,82.50
2017-07-27T02:10:48.580Z,82.50
2017-07-27T02:13:16.390Z,82.50
2017-07-27T02:15:43.931Z,82.50
2017-07-27T02:18:12.573Z,82.60
2017-07-27T02:20:40.774Z,82.50
2017-07-27T02:23:08.346Z,82.50
2017-07-27T02:25:36.761Z,82.40
2017-07-27T02:28:04.323Z,82.40
2017-07-27T02:30:32.360Z,82.40
2017-07-27T02:33:00.691Z,82.30
2017-07-27T02:35:28.241Z,82.30
2017-07-27T02:37:55.828Z,82.30
2017-07-27T02:40:23.416Z,82.20
2017-07-27T02:42:51.458Z,82.20
2017-07-27T02:45:19.023Z,82.10
2017-07-27T02:47:46.595Z,82.10
2017-07-27T02:50:14.958Z,82.70
2017-07-27T02:52:42.510Z,82.70
2017-07-27T02:55:10.637Z,82.80
2017-07-27T02:57:38.286Z,82.90
2017-07-27T03:00:05.854Z,82.80
2017-07-27T03:02:33.450Z,82.90
2017-07-27T03:05:01.005Z,83.10
2017-07-27T03:07:28.891Z,82.90
2017-07-27T03:09:56.460Z,83.10
2017-07-27T03:12:24.018Z,82.80
2017-07-27T03:14:51.614Z,83.00
2017-07-27T03:17:19.300Z,83.00
2017-07-27T03:19:47.216Z,82.90
2017-07-27T03:22:15.645Z,83.70
2017-07-27T03:24:43.214Z,83.50
2017-07-27T03:27:10.812Z,83.60
2017-07-27T03:29:38.355Z,83.40
2017-07-27T03:32:06.323Z,83.40
2017-07-27T03:34:33.905Z,83.20
2017-07-27T03:37:01.458Z,83.20
2017-07-27T03:39:29.815Z,83.20
2017-07-27T03:41:57.381Z,83.10
2017-07-27T03:44:25.250Z,83.30
2017-07-27T03:46:52.826Z,83.30
2017-07-27T03:49:20.384Z,83.30
2017-07-27T03:51:48.762Z,84.00
2017-07-27T03:54:16.327Z,83.20
2017-07-27T03:56:44.994Z,83.90
2017-07-27T03:59:12.568Z,83.50
2017-07-27T04:01:40.148Z,83.70
2017-07-27T04:04:07.746Z,83.80
2017-07-27T04:06:35.325Z,83.60
2017-07-27T04:09:03.163Z,83.80
2017-07-27T04:11:30.723Z,83.60
2017-07-27T04:13:58.293Z,83.70
2017-07-27T04:16:25.896Z,83.40
2017-07-27T04:18:54.234Z,83.70
2017-07-27T04:21:22.168Z,83.60
2017-07-27T04:23:49.733Z,83.30
2017-07-27T04:26:17.375Z,83.10
2017-07-27T04:28:45.952Z,82.90
2017-07-27T04:31:13.509Z,82.90
2017-07-27T04:33:42.154Z,83.20
2017-07-27T04:36:09.722Z,83.00
2017-07-27T04:38:37.295Z,83.20
2017-07-27T04:41:04.892Z,82.80
2017-07-27T04:43:32.449Z,83.00
2017-07-27T04:46:00.467Z,84.20
2017-07-27T04:48:28.030Z,81.60
2017-07-27T04:50:55.586Z,80.10
2017-07-27T04:53:23.184Z,78.90
2017-07-27T04:55:50.742Z,78.80
2017-07-27T04:58:19.110Z,78.20
2017-07-27T05:00:46.672Z,78.20
2017-07-27T05:03:14.734Z,78.40
2017-07-27T05:05:42.292Z,78.70
2017-07-27T05:08:09.864Z,79.20
2017-07-27T05:10:38.332Z,79.50
2017-07-27T05:13:05.935Z,79.10
2017-07-27T05:15:33.851Z,79.50
2017-07-27T05:18:01.418Z,80.90
2017-07-27T05:20:28.990Z,76.50
2017-07-27T05:22:56.578Z,72.10
2017-07-27T05:25:24.241Z,71.10
2017-07-27T05:27:52.354Z,64.80
2017-07-27T05:30:19.926Z,62.40
2017-07-27T05:32:47.662Z,60.60
2017-07-27T05:35:15.258Z,56.70
2017-07-27T05:37:42.819Z,54.40
2017-07-27T05:40:10.668Z,52.30
2017-07-27T05:42:38.235Z,51.20
2017-07-27T05:45:05.779Z,48.60
2017-07-27T05:47:33.378Z,43.20
2017-07-27T05:50:00.937Z,45.00
2017-07-27T05:52:29.772Z,42.50
2017-07-27T05:54:57.326Z,42.50
2017-07-27T05:57:25.093Z,42.90
2017-07-27T05:59:52.693Z,41.20
2017-07-27T06:02:20.246Z,38.80
2017-07-27T06:04:48.274Z,41.80
2017-07-27T06:07:15.947Z,41.70
2017-07-27T06:09:43.519Z,41.50
2017-07-27T06:12:11.287Z,40.30
2017-07-27T06:14:38.846Z,40.10
2017-07-27T06:17:06.831Z,43.00
2017-07-27T06:19:34.373Z,40.10
2017-07-27T06:22:01.958Z,37.30
2017-07-27T06:24:29.565Z,37.10
2017-07-27T06:26:57.126Z,38.60
2017-07-27T06:29:25.142Z,38.20
2017-07-27T06:31:52.700Z,41.00
2017-07-27T06:34:20.287Z,40.50
2017-07-27T06:36:48.640Z,40.40
2017-07-27T06:39:16.249Z,40.40
2017-07-27T06:41:44.440Z,39.00
2017-07-27T06:44:11.988Z,41.10
2017-07-27T06:46:39.557Z,41.20
2017-07-27T06:49:07.170Z,42.00
2017-07-27T06:51:34.932Z,40.90
2017-07-27T06:54:03.781Z,38.10
2017-07-27T06:56:31.344Z,38.00
2017-07-27T06:58:58.897Z,36.80
2017-07-27T07:01:26.507Z,32.60
2017-07-27T07:03:54.084Z,33.10
2017-07-27T07:06:21.950Z,31.20
2017-07-27T07:08:49.507Z,30.50
2017-07-27T07:11:17.073Z,30.60
2017-07-27T07:13:44.673Z,30.60
2017-07-27T07:16:12.223Z,30.70
2017-07-27T07:18:40.078Z,32.00
2017-07-27T07:21:07.625Z,31.10
2017-07-27T07:23:35.176Z,30.40
2017-07-27T07:26:02.780Z,34.00
2017-07-27T07:28:30.332Z,34.80
2017-07-27T07:30:58.316Z,30.70
2017-07-27T07:33:25.871Z,30.60
2017-07-27T07:35:53.432Z,30.50
2017-07-27T07:38:21.037Z,29.50
2017-07-27T07:40:48.607Z,30.60
2017-07-27T07:43:16.637Z,32.60
2017-07-27T07:45:44.182Z,30.30
2017-07-27T07:48:11.724Z,31.80
2017-07-27T07:50:39.312Z,33.60
2017-07-27T07:53:06.891Z,33.70
2017-07-27T07:55:35.557Z,33.00
2017-07-27T07:58:03.107Z,32.40
2017-07-27T08:00:30.670Z,32.20
2017-07-27T08:02:58.263Z,31.80
2017-07-27T08:05:25.820Z,29.50
2017-07-27T08:07:54.548Z,35.00
2017-07-27T08:10:23.913Z,34.90
2017-07-27T08:12:51.478Z,32.40
2017-07-27T08:15:20.126Z,37.50
2017-07-27T08:17:47.704Z,37.50
2017-07-27T08:20:15.580Z,38.10
2017-07-27T08:22:43.131Z,40.20
2017-07-27T08:25:10.692Z,43.00
2017-07-27T08:27:38.308Z,43.00
2017-07-27T08:30:05.852Z,42.10
2017-07-27T08:32:33.932Z,43.80
2017-07-27T08:35:01.476Z,46.10
2017-07-27T08:37:29.035Z,46.60
2017-07-27T08:39:56.643Z,47.90
2017-07-27T08:42:24.185Z,48.60
2017-07-27T08:44:52.278Z,48.80
2017-07-27T08:47:19.833Z,49.30
2017-07-27T08:49:47.428Z,49.80
2017-07-27T08:52:15.805Z,49.80
2017-07-27T08:54:43.355Z,49.70
2017-07-27T08:57:12.031Z,49.70
2017-07-27T08:59:40.366Z,50.50
2017-07-27T09:02:07.924Z,50.30
2017-07-27T09:04:35.496Z,50.50
2017-07-27T09:07:03.075Z,49.70
2017-07-27T09:09:31.057Z,49.80
2017-07-27T09:11:58.613Z,49.90
2017-07-27T09:14:26.382Z,49.90
2017-07-27T09:16:53.972Z,49.90
2017-07-27T09:19:21.539Z,49.90
2017-07-27T09:21:49.459Z,50.10
2017-07-27T09:24:17.011Z,50.20
2017-07-27T09:26:44.580Z,50.40
2017-07-27T09:29:12.194Z,50.40
2017-07-27T09:31:39.757Z,50.50
2017-07-27T09:34:07.643Z,50.40
2017-07-27T09:36:35.217Z,50.50
2017-07-27T09:39:02.775Z,49.80
2017-07-27T09:41:30.799Z,48.60
2017-07-27T09:43:58.347Z,48.60
2017-07-27T09:46:26.491Z,48.20
2017-07-27T09:48:54.052Z,47.40
2017-07-27T09:51:21.642Z,47.20
2017-07-27T09:53:49.242Z,46.90
2017-07-27T09:56:16.830Z,47.00
2017-07-27T09:58:44.686Z,47.70
2017-07-27T10:01:12.244Z,46.30
2017-07-27T10:03:39.792Z,47.40
2017-07-27T10:06:07.374Z,47.00
2017-07-27T10:08:34.935Z,46.60
2017-07-27T10:11:02.897Z,47.00
2017-07-27T10:13:30.471Z,45.60
2017-07-27T10:15:58.024Z,46.10
2017-07-27T10:18:25.620Z,46.20
2017-07-27T10:20:53.173Z,46.20
2017-07-27T10:23:21.203Z,46.50
2017-07-27T10:25:48.748Z,46.60
2017-07-27T10:28:16.294Z,46.30
2017-07-27T10:30:43.878Z,47.10
2017-07-27T10:33:11.634Z,46.80
2017-07-27T10:35:39.701Z,46.50
2017-07-27T10:38:07.268Z,46.30
2017-07-27T10:40:34.837Z,47.60
2017-07-27T10:43:02.425Z,47.10
2017-07-27T10:45:29.986Z,46.70
2017-07-27T10:47:58.625Z,46.70
2017-07-27T10:50:26.203Z,46.60
2017-07-27T10:52:53.755Z,47.30
2017-07-27T10:55:21.352Z,47.90
2017-07-27T10:57:48.904Z,49.20
2017-07-27T11:00:17.580Z,51.50
2017-07-27T11:02:45.144Z,51.40
2017-07-27T11:05:12.708Z,53.20
2017-07-27T11:07:41.064Z,55.50
2017-07-27T11:10:08.606Z,55.30
2017-07-27T11:12:36.480Z,55.90
2017-07-27T11:15:04.039Z,56.90
2017-07-27T11:17:31.777Z,57.40
2017-07-27T11:19:59.451Z,58.60
2017-07-27T11:22:27.016Z,60.30
2017-07-27T11:24:54.987Z,61.00
2017-07-27T11:27:22.558Z,61.00
2017-07-27T11:29:50.124Z,61.00
2017-07-27T11:32:17.991Z,60.90
2017-07-27T11:34:45.573Z,62.60
2017-07-27T11:37:13.721Z,62.30
2017-07-27T11:39:41.292Z,61.60
2017-07-27T11:42:08.857Z,62.70
2017-07-27T11:44:37.229Z,64.00
2017-07-27T11:47:04.818Z,63.60
2017-07-27T11:49:32.853Z,63.60
2017-07-27T11:52:00.461Z,63.00
2017-07-27T11:54:28.545Z,63.70
2017-07-27T11:56:56.151Z,63.40
2017-07-27T11:59:23.730Z,62.60
2017-07-27T12:01:52.386Z,62.20
2017-07-27T12:04:19.938Z,62.10
2017-07-27T12:06:47.513Z,61.10
2017-07-27T12:09:15.131Z,60.40
2017-07-27T12:11:42.685Z,59.30
2017-07-27T12:14:10.710Z,59.20
2017-07-27T12:16:38.256Z,59.40
2017-07-27T12:19:05.921Z,59.20
2017-07-27T12:21:33.522Z,59.50
2017-07-27T12:24:01.088Z,59.80
2017-07-27T12:26:30.040Z,59.90
2017-07-27T12:28:57.592Z,60.00
2017-07-27T12:31:25.155Z,60.30
2017-07-27T12:33:52.775Z,60.80
2017-07-27T12:36:20.363Z,61.30
2017-07-27T12:38:48.240Z,61.30
2017-07-27T12:41:15.801Z,61.20
2017-07-27T12:43:43.369Z,61.20
2017-07-27T12:46:10.952Z,61.20
2017-07-27T12:48:38.722Z,61.30
2017-07-27T12:51:06.744Z,61.30
2017-07-27T12:53:34.290Z,61.40
2017-07-27T12:56:01.858Z,60.90
2017-07-27T12:58:29.431Z,60.80
2017-07-27T13:00:56.981Z,60.30
2017-07-27T13:03:25.053Z,60.00
2017-07-27T13:05:52.615Z,59.60
2017-07-27T13:08:20.175Z,59.30
2017-07-27T13:10:47.966Z,58.80
2017-07-27T13:13:15.572Z,57.90
2017-07-27T13:15:43.414Z,58.50
2017-07-27T13:18:10.958Z,58.30
2017-07-27T13:20:38.520Z,58.00
2017-07-27T13:23:06.876Z,57.70
2017-07-27T13:25:34.448Z,57.70
2017-07-27T13:28:03.103Z,57.50
2017-07-27T13:30:30.648Z,57.40
2017-07-27T13:32:58.203Z,58.00
2017-07-27T13:35:25.906Z,57.80
2017-07-27T13:37:53.452Z,58.00
2017-07-27T13:40:21.643Z,57.20
2017-07-27T13:42:49.983Z,57.10
2017-07-27T13:45:17.605Z,57.10
2017-07-27T13:47:45.236Z,57.00
2017-07-27T13:50:12.800Z,56.80
2017-07-27T13:52:40.769Z,57.00
2017-07-27T13:55:09.088Z,57.50
2017-07-27T13:57:36.657Z,57.20
2017-07-27T14:00:04.264Z,57.00
2017-07-27T14:02:31.814Z,56.80
2017-07-27T14:04:59.893Z,55.30
2017-07-27T14:07:27.450Z,55.90
2017-07-27T14:09:54.991Z,55.40
2017-07-27T14:12:22.575Z,55.60
2017-07-27T14:14:50.147Z,55.00
2017-07-27T14:17:18.804Z,55.20
2017-07-27T14:19:46.978Z,55.20
2017-07-27T14:22:14.566Z,55.50
2017-07-27T14:24:42.925Z,54.90
2017-07-27T14:27:10.489Z,54.90
2017-07-27T14:29:38.517Z,55.00
2017-07-27T14:32:06.060Z,55.50
2017-07-27T14:34:33.625Z,55.20
2017-07-27T14:37:01.230Z,55.50
2017-07-27T14:39:28.782Z,56.00
2017-07-27T14:41:56.855Z,56.30
2017-07-27T14:44:25.356Z,57.70
2017-07-27T14:46:53.689Z,59.20
2017-07-27T14:49:21.315Z,58.40
2017-07-27T14:51:48.848Z,58.80
2017-07-27T14:54:16.809Z,59.50
2017-07-27T14:56:44.373Z,59.80
2017-07-27T14:59:11.920Z,60.00
2017-07-27T15:01:39.625Z,60.00
2017-07-27T15:04:07.178Z,60.00
2017-07-27T15:06:35.129Z,59.90
2017-07-27T15:09:02.663Z,59.60
2017-07-27T15:11:30.205Z,59.60
2017-07-27T15:13:57.813Z,60.10
2017-07-27T15:16:25.381Z,60.10
2017-07-27T15:18:54.239Z,60.90
2017-07-27T15:21:21.801Z,60.90
2017-07-27T15:23:49.529Z,60.90
2017-07-27T15:26:17.271Z,60.90
2017-07-27T15:28:44.829Z,60.90
2017-07-27T15:31:12.964Z,61.10
2017-07-27T15:33:40.516Z,61.30
2017-07-27T15:36:08.249Z,61.40
2017-07-27T15:38:35.853Z,61.20
2017-07-27T15:41:03.428Z,60.70
2017-07-27T15:43:32.102Z,60.50
2017-07-27T15:46:00.425Z,60.20
2017-07-27T15:48:28.031Z,60.20
2017-07-27T15:50:55.656Z,60.50
2017-07-27T15:53:23.220Z,61.10
2017-07-27T15:55:51.242Z,61.20
2017-07-27T15:58:19.577Z,61.20
2017-07-27T16:00:47.137Z,61.00
2017-07-27T16:03:14.755Z,61.10
2017-07-27T16:05:42.313Z,61.10
2017-07-27T16:08:10.332Z,61.10
2017-07-27T16:10:37.871Z,61.10
2017-07-27T16:13:06.234Z,61.00
2017-07-27T16:15:33.830Z,61.00
2017-07-27T16:18:01.379Z,60.90
2017-07-27T16:20:29.269Z,60.80
2017-07-27T16:22:56.819Z,61.30
2017-07-27T16:25:24.391Z,61.50
2017-07-27T16:27:52.009Z,61.80
2017-07-27T16:30:19.595Z,62.20
2017-07-27T16:32:47.582Z,62.00
2017-07-27T16:35:15.130Z,62.10
2017-07-27T16:37:42.697Z,62.30
2017-07-27T16:40:10.528Z,62.50
2017-07-27T16:42:38.087Z,62.80
2017-07-27T16:45:05.948Z,62.90
2017-07-27T16:47:33.515Z,63.00
2017-07-27T16:50:01.085Z,63.20
2017-07-27T16:52:28.705Z,63.20
2017-07-27T16:54:57.033Z,62.90
2017-07-27T16:57:25.021Z,62.90
2017-07-27T16:59:52.641Z,63.30
2017-07-27T17:02:20.191Z,63.70
2017-07-27T17:04:47.795Z,64.00
2017-07-27T17:07:15.356Z,64.20
2017-07-27T17:09:43.487Z,64.30
2017-07-27T17:12:11.057Z,64.00
2017-07-27T17:14:38.616Z,63.80
2017-07-27T17:17:06.529Z,64.00
2017-07-27T17:19:34.574Z,64.20
2017-07-27T17:22:02.690Z,64.50
2017-07-27T17:24:30.266Z,64.50
2017-07-27T17:26:57.934Z,64.70
2017-07-27T17:29:25.547Z,64.60
2017-07-27T17:31:53.120Z,64.40
2017-07-27T17:34:21.758Z,64.30
2017-07-27T17:36:49.351Z,64.60
2017-07-27T17:39:16.933Z,64.70
2017-07-27T17:41:45.295Z,64.70
2017-07-27T17:44:12.869Z,64.50
2017-07-27T17:46:41.543Z,65.20
2017-07-27T17:49:09.968Z,64.60
2017-07-27T17:51:37.841Z,64.60
2017-07-27T17:54:05.443Z,64.60
2017-07-27T17:56:33.047Z,64.70
2017-07-27T17:59:00.646Z,64.70
2017-07-27T18:01:28.209Z,65.30
2017-07-27T18:03:56.209Z,64.70
2017-07-27T18:06:24.536Z,64.80
2017-07-27T18:08:52.102Z,64.70
2017-07-27T18:11:19.725Z,64.80
2017-07-27T18:13:47.625Z,64.90
2017-07-27T18:16:15.200Z,64.90
2017-07-27T18:18:43.609Z,64.80
2017-07-27T18:21:11.662Z,64.60
2017-07-27T18:23:39.225Z,64.90
2017-07-27T18:26:06.908Z,64.80
2017-07-27T18:28:34.526Z,64.70
2017-07-27T18:31:02.109Z,64.60
2017-07-27T18:33:29.963Z,65.10
2017-07-27T18:35:57.536Z,65.30
2017-07-27T18:38:25.104Z,65.70
2017-07-27T18:40:52.703Z,65.90
2017-07-27T18:43:20.378Z,66.20
2017-07-27T18:45:48.296Z,66.50
2017-07-27T18:48:15.861Z,66.70
2017-07-27T18:50:43.428Z,67.00
2017-07-27T18:53:11.796Z,67.90
2017-07-27T18:55:39.367Z,67.80
2017-07-27T18:58:08.091Z,68.10
2017-07-27T19:00:35.648Z,68.00
2017-07-27T19:03:03.196Z,68.00
2017-07-27T19:05:30.787Z,68.00
2017-07-27T19:07:58.508Z,68.00
2017-07-27T19:10:26.550Z,67.90
2017-07-27T19:12:54.130Z,68.50
2017-07-27T19:15:21.710Z,68.60
2017-07-27T19:17:49.399Z,68.60
2017-07-27T19:20:16.967Z,68.70
2017-07-27T19:22:44.854Z,68.70
2017-07-27T19:25:12.410Z,68.70
2017-07-27T19:27:39.975Z,68.80
2017-07-27T19:30:07.593Z,68.50
2017-07-27T19:32:35.256Z,68.80
2017-07-27T19:35:03.165Z,68.90
2017-07-27T19:37:30.735Z,69.10
2017-07-27T19:39:58.445Z,69.10
2017-07-27T19:42:26.039Z,69.30
2017-07-27T19:44:53.622Z,69.00
2017-07-27T19:47:22.327Z,69.60
2017-07-27T19:49:49.881Z,69.30
2017-07-27T19:52:17.574Z,69.40
2017-07-27T19:54:45.181Z,69.40
2017-07-27T19:57:12.745Z,69.60
2017-07-27T19:59:41.413Z,69.80
2017-07-27T20:02:08.993Z,69.80
2017-07-27T20:04:36.579Z,69.90
2017-07-27T20:07:04.205Z,69.80
2017-07-27T20:09:31.764Z,69.70
2017-07-27T20:12:00.556Z,70.40
2017-07-27T20:14:29.031Z,70.40
2017-07-27T20:16:56.920Z,70.30
2017-07-27T20:19:25.282Z,70.50
2017-07-27T20:21:52.830Z,70.50
2017-07-27T20:24:20.781Z,70.70
2017-07-27T20:26:48.516Z,70.70
2017-07-27T20:29:16.085Z,71.10
2017-07-27T20:31:43.727Z,71.30
2017-07-27T20:34:11.280Z,71.40
2017-07-27T20:36:39.248Z,71.70
2017-07-27T20:39:06.840Z,71.70
2017-07-27T20:41:34.423Z,71.70
2017-07-27T20:44:02.201Z,71.50
2017-07-27T20:46:29.772Z,71.20
2017-07-27T20:48:57.738Z,71.20
2017-07-27T20:51:26.080Z,71.50
2017-07-27T20:53:53.648Z,70.90
2017-07-27T20:56:21.232Z,70.80
2017-07-27T20:58:48.791Z,70.70
2017-07-27T21:01:16.665Z,70.40
2017-07-27T21:03:45.009Z,69.90
2017-07-27T21:06:12.565Z,69.90
2017-07-27T21:08:40.202Z,70.10
2017-07-27T21:11:07.764Z,70.00
2017-07-27T21:13:35.758Z,70.10
2017-07-27T21:16:03.316Z,69.90
2017-07-27T21:18:30.888Z,69.90
2017-07-27T21:20:58.478Z,69.80
2017-07-27T21:23:26.057Z,69.80
2017-07-27T21:25:54.077Z,69.60
2017-07-27T21:28:21.705Z,69.90
2017-07-27T21:30:49.295Z,69.80
2017-07-27T21:33:17.239Z,70.20
2017-07-27T21:35:44.798Z,70.30
2017-07-27T21:38:12.823Z,70.50
2017-07-27T21:40:41.653Z,70.50
2017-07-27T21:43:09.236Z,70.30
2017-07-27T21:45:36.836Z,70.50
2017-07-27T21:48:05.478Z,70.90
2017-07-27T21:50:33.375Z,70.20
2017-07-27T21:53:01.073Z,70.40
2017-07-27T21:55:28.627Z,70.60
2017-07-27T21:57:56.235Z,70.60
2017-07-27T22:00:23.788Z,70.70
2017-07-27T22:02:51.728Z,70.80
2017-07-27T22:05:19.267Z,70.80
2017-07-27T22:07:47.581Z,70.50
2017-07-27T22:10:15.190Z,70.40
2017-07-27T22:12:42.990Z,70.50
2017-07-27T22:15:10.889Z,70.50
2017-07-27T22:17:38.468Z,70.20
2017-07-27T22:20:06.025Z,70.10
2017-07-27T22:22:33.633Z,70.10
2017-07-27T22:25:01.289Z,70.10
2017-07-27T22:27:29.225Z,70.30
2017-07-27T22:29:56.789Z,70.50
2017-07-27T22:32:24.335Z,70.40
2017-07-27T22:34:51.968Z,70.40
2017-07-27T22:37:19.532Z,70.70
2017-07-27T22:39:47.518Z,70.80
2017-07-27T22:42:15.082Z,70.70
2017-07-27T22:44:42.635Z,70.50
2017-07-27T22:47:10.367Z,70.70
2017-07-27T22:49:37.920Z,70.50
2017-07-27T22:52:05.827Z,70.60
2017-07-27T22:54:33.416Z,70.80
2017-07-27T22:57:00.986Z,71.00
2017-07-27T22:59:29.349Z,71.00
2017-07-27T23:01:56.911Z,71.00
2017-07-27T23:04:24.821Z,71.00
2017-07-27T23:06:52.382Z,71.00
2017-07-27T23:09:19.937Z,71.10
2017-07-27T23:11:47.542Z,70.80
2017-07-27T23:14:15.095Z,71.00
2017-07-27T23:16:43.756Z,71.10
2017-07-27T23:19:11.318Z,71.10
2017-07-27T23:21:39.096Z,71.30
2017-07-27T23:24:06.705Z,71.40
2017-07-27T23:26:34.269Z,71.50
2017-07-27T23:29:02.266Z,71.80
2017-07-27T23:31:29.836Z,71.80
2017-07-27T23:33:57.398Z,71.80
2017-07-27T23:36:24.987Z,71.80
2017-07-27T23:38:52.526Z,71.80
2017-07-27T23:41:20.558Z,71.80
2017-07-27T23:43:48.120Z,71.80
2017-07-27T23:46:15.676Z,71.80
2017-07-27T23:48:43.266Z,71.80
2017-07-27T23:51:10.808Z,71.80
2017-07-27T23:53:38.668Z,71.80
2017-07-27T23:56:06.228Z,71.80
2017-07-27T23:58:33.785Z,71.80
